Terminal Aerodrome Forecast
Issued by NWS Charleston, WV

Current Version | Previous Version | Text Only | Print | Product List | Glossary Off
Versions: 1 2 3 4 5 6 7 8 9 10 11 12 13 14 15 16 17 18 19 20 21 22 23 24

000
FTUS41 KRLX 152300
TAFPKB
TAF
KPKB 152332Z 1600/1624 00000KT P6SM SCT200
     FM161000 VRB03KT P6SM -SHRA OVC030
     FM161800 22008G16KT P6SM VCSH OVC015=

USA.gov is the U.S. government's official web portal to all federal, state and local government web resources and services.